createdAt,value
2023-05-11T00:02:05.996Z,13.94
2023-05-11T00:04:33.272Z,13.91
2023-05-11T00:07:00.322Z,14.77
2023-05-11T00:09:28.286Z,14.34
2023-05-11T00:11:55.297Z,14.96
2023-05-11T00:14:22.440Z,14.51
2023-05-11T00:16:49.527Z,14.46
2023-05-11T00:19:16.586Z,14.88
2023-05-11T00:21:43.657Z,14.59
2023-05-11T00:24:10.971Z,14.74
2023-05-11T00:26:38.073Z,15.15
2023-05-11T00:29:05.137Z,14.17
2023-05-11T00:31:32.779Z,14.01
2023-05-11T00:33:59.887Z,14.08
2023-05-11T00:36:27.526Z,14.06
2023-05-11T00:38:54.585Z,14.77
2023-05-11T00:41:21.725Z,14.88
2023-05-11T00:43:48.759Z,14.82
2023-05-11T00:46:15.947Z,14.36
2023-05-11T00:48:43.746Z,14.51
2023-05-11T00:51:13.203Z,14.53
2023-05-11T00:53:40.532Z,14.51
2023-05-11T00:56:07.636Z,14.36
2023-05-11T00:58:36.530Z,14.39
2023-05-11T01:01:04.282Z,14.66
2023-05-11T01:03:33.080Z,14.83
2023-05-11T01:06:46.779Z,15.38
2023-05-11T01:09:40.726Z,15.11
2023-05-11T01:12:29.132Z,14.97
2023-05-11T01:15:28.912Z,14.99
2023-05-11T01:18:07.047Z,15.14
2023-05-11T01:20:34.706Z,15.08
2023-05-11T01:23:14.538Z,14.89
2023-05-11T01:26:16.646Z,14.55
2023-05-11T01:29:11.665Z,14.62
2023-05-11T01:31:46.878Z,14.65
2023-05-11T01:34:23.710Z,14.43
2023-05-11T01:36:59.449Z,14.87
2023-05-11T01:39:36.199Z,14.60
2023-05-11T01:42:14.252Z,14.87
2023-05-11T01:44:44.766Z,14.42
2023-05-11T01:47:14.250Z,14.17
2023-05-11T01:49:45.639Z,14.26
2023-05-11T01:52:15.517Z,14.28
2023-05-11T01:54:45.278Z,14.40
2023-05-11T01:57:13.777Z,14.65
2023-05-11T01:59:41.452Z,13.95
2023-05-11T02:02:10.210Z,13.85
2023-05-11T02:04:40.719Z,13.73
2023-05-11T02:07:11.946Z,13.82
2023-05-11T02:09:40.816Z,13.21
2023-05-11T02:12:11.366Z,13.17
2023-05-11T02:14:39.624Z,13.16
2023-05-11T02:17:09.018Z,13.14
2023-05-11T02:19:39.387Z,13.17
2023-05-11T02:22:08.738Z,13.29
2023-05-11T02:24:36.910Z,12.98
2023-05-11T02:27:04.462Z,13.06
2023-05-11T02:29:31.715Z,12.94
2023-05-11T02:32:09.357Z,13.16
2023-05-11T02:34:42.880Z,13.27
2023-05-11T02:37:24.123Z,13.95
2023-05-11T02:40:00.044Z,14.03
2023-05-11T02:42:31.167Z,13.95
2023-05-11T02:45:07.463Z,13.59
2023-05-11T02:47:45.538Z,13.31
2023-05-11T02:50:14.781Z,13.04
2023-05-11T02:52:46.870Z,13.07
2023-05-11T02:55:17.644Z,12.93
2023-05-11T02:57:45.995Z,13.18
2023-05-11T03:00:13.780Z,12.78
2023-05-11T03:02:41.347Z,12.75
2023-05-11T03:05:08.987Z,12.29
2023-05-11T03:07:36.770Z,12.19
2023-05-11T03:10:04.631Z,12.11
2023-05-11T03:12:34.084Z,12.11
2023-05-11T03:15:03.117Z,12.11
2023-05-11T03:17:31.608Z,11.99
2023-05-11T03:20:03.593Z,12.08
2023-05-11T03:22:31.893Z,12.54
2023-05-11T03:25:00.649Z,12.68
2023-05-11T03:27:29.770Z,12.32
2023-05-11T03:29:58.865Z,12.37
2023-05-11T03:32:26.173Z,12.09
2023-05-11T03:34:53.287Z,12.22
2023-05-11T03:37:22.448Z,12.31
2023-05-11T03:39:57.230Z,12.37
2023-05-11T03:42:27.459Z,12.55
2023-05-11T03:44:59.743Z,12.46
2023-05-11T03:47:29.367Z,12.45
2023-05-11T03:49:58.474Z,12.18
2023-05-11T03:52:26.728Z,12.42
2023-05-11T03:54:54.105Z,12.38
2023-05-11T03:57:21.087Z,12.32
2023-05-11T03:59:48.321Z,12.27
2023-05-11T04:02:16.052Z,12.42
2023-05-11T04:04:43.158Z,12.28
2023-05-11T04:07:10.346Z,12.21
2023-05-11T04:09:37.447Z,12.20
2023-05-11T04:12:04.804Z,11.73
2023-05-11T04:14:31.902Z,11.58
2023-05-11T04:16:59.472Z,11.71
2023-05-11T04:19:26.550Z,12.17
2023-05-11T04:21:53.729Z,12.53
2023-05-11T04:24:20.806Z,12.64
2023-05-11T04:26:47.933Z,12.66
2023-05-11T04:29:15.020Z,12.81
2023-05-11T04:31:42.075Z,12.85
2023-05-11T04:34:09.151Z,12.43
2023-05-11T04:36:36.225Z,12.84
2023-05-11T04:39:04.504Z,12.76
2023-05-11T04:41:31.619Z,12.90
2023-05-11T04:43:59.472Z,13.12
2023-05-11T04:46:42.819Z,13.22
2023-05-11T04:49:32.290Z,13.25
2023-05-11T04:55:28.933Z,13.53
2023-05-11T04:58:26.827Z,13.90
2023-05-11T05:01:14.601Z,13.83
2023-05-11T05:04:19.977Z,13.50
2023-05-11T05:07:03.960Z,13.48
2023-05-11T05:15:35.915Z,12.70
2023-05-11T05:18:16.361Z,12.88
2023-05-11T05:21:14.872Z,12.73
2023-05-11T05:30:00.826Z,14.04
2023-05-11T05:32:59.091Z,14.16
2023-05-11T05:35:46.769Z,13.83
2023-05-11T05:38:49.118Z,14.35
2023-05-11T05:45:25.679Z,14.26
2023-05-11T05:47:58.627Z,14.08
2023-05-11T05:56:31.730Z,14.23
2023-05-11T06:02:13.272Z,14.44
2023-05-11T06:04:55.539Z,14.69
2023-05-11T06:08:09.228Z,14.40
2023-05-11T06:11:00.351Z,14.58
2023-05-11T06:13:51.911Z,14.76
2023-05-11T06:16:29.671Z,14.99
2023-05-11T06:19:11.083Z,14.52
2023-05-11T06:21:52.109Z,14.37
2023-05-11T06:27:29.610Z,15.15
2023-05-11T06:33:17.099Z,14.74
2023-05-11T06:36:15.984Z,15.18
2023-05-11T06:39:04.446Z,14.85
2023-05-11T06:41:51.180Z,15.08
2023-05-11T06:44:34.269Z,15.28
2023-05-11T06:51:03.610Z,16.50
2023-05-11T06:53:55.055Z,16.14
2023-05-11T06:59:18.790Z,16.45
2023-05-11T07:04:50.486Z,16.83
2023-05-11T07:07:31.621Z,16.20
2023-05-11T07:11:28.013Z,16.14
2023-05-11T07:14:16.632Z,16.65
2023-05-11T07:16:50.548Z,16.71
2023-05-11T07:22:17.442Z,16.61
2023-05-11T07:25:22.818Z,16.21
2023-05-11T07:28:04.981Z,16.25
2023-05-11T07:30:44.513Z,16.61
2023-05-11T07:33:16.976Z,17.23
2023-05-11T07:36:04.832Z,18.16
2023-05-11T07:38:47.698Z,16.18
2023-05-11T07:41:28.040Z,16.32
2023-05-11T07:44:06.349Z,16.83
2023-05-11T07:49:51.354Z,16.92
2023-05-11T07:52:49.531Z,17.77
2023-05-11T07:58:50.548Z,16.36
2023-05-11T08:01:48.960Z,17.82
2023-05-11T08:04:43.573Z,18.83
2023-05-11T08:07:27.997Z,17.16
2023-05-11T08:12:59.259Z,17.84
2023-05-11T08:15:42.337Z,18.58
2023-05-11T08:18:19.982Z,18.68
2023-05-11T08:24:02.130Z,16.99
2023-05-11T08:38:38.652Z,17.54
2023-05-11T08:44:48.437Z,18.10
2023-05-11T09:03:05.757Z,18.34
2023-05-11T09:05:56.414Z,18.49
2023-05-11T09:08:58.897Z,18.98
2023-05-11T09:11:52.281Z,18.83
2023-05-11T09:14:43.538Z,20.80
2023-05-11T09:23:58.141Z,18.75
2023-05-11T09:29:51.827Z,18.84
2023-05-11T09:32:29.816Z,19.41
2023-05-11T09:35:56.437Z,18.86
2023-05-11T09:52:16.403Z,20.03
2023-05-11T09:55:01.810Z,18.78
2023-05-11T10:02:13.157Z,19.53
2023-05-11T10:08:48.627Z,19.32
2023-05-11T10:12:13.255Z,20.09
2023-05-11T10:22:00.303Z,18.88
2023-05-11T10:28:34.230Z,23.17
2023-05-11T10:31:29.826Z,20.70
2023-05-11T10:41:00.189Z,18.14
2023-05-11T10:48:32.634Z,17.56
2023-05-11T10:52:07.732Z,17.21
2023-05-11T11:05:53.704Z,18.29
2023-05-11T11:22:53.723Z,19.84
2023-05-11T11:26:45.596Z,20.37
2023-05-11T11:33:25.333Z,17.74
2023-05-11T11:40:14.594Z,20.24
2023-05-11T11:43:57.518Z,21.27
2023-05-11T11:56:53.996Z,18.63
2023-05-11T12:00:02.060Z,19.25
2023-05-11T12:03:20.235Z,20.12
2023-05-11T12:10:22.686Z,19.02
2023-05-11T12:23:41.564Z,17.93
2023-05-11T12:30:42.881Z,20.30
2023-05-11T12:40:23.841Z,18.51
2023-05-11T12:46:46.158Z,19.43
2023-05-11T12:50:23.557Z,19.53
2023-05-11T12:53:31.410Z,20.23
2023-05-11T13:10:28.933Z,18.80
2023-05-11T13:13:18.911Z,20.70
2023-05-11T13:16:19.971Z,19.70
2023-05-11T13:25:50.845Z,24.87
2023-05-11T13:29:26.261Z,24.63
2023-05-11T13:38:13.898Z,23.70
2023-05-11T13:41:20.905Z,20.56
2023-05-11T13:47:19.594Z,22.26
2023-05-11T13:49:46.979Z,21.51
2023-05-11T13:52:15.263Z,21.35
2023-05-11T13:54:42.672Z,21.35
2023-05-11T13:57:10.282Z,19.81
2023-05-11T14:02:05.606Z,-143.63
2023-05-11T14:04:33.106Z,-143.63
2023-05-11T14:07:00.613Z,-143.63
2023-05-11T14:09:28.078Z,-143.63
2023-05-11T14:11:55.451Z,-143.63
2023-05-11T14:14:22.746Z,-143.63
2023-05-11T14:16:50.525Z,-143.63
2023-05-11T14:19:17.995Z,-143.63
2023-05-11T14:21:45.418Z,-143.63
2023-05-11T14:24:13.021Z,-143.63
2023-05-11T14:26:41.622Z,-143.63
2023-05-11T14:29:09.011Z,-143.63
2023-05-11T14:31:37.167Z,-143.63
2023-05-11T14:34:05.959Z,-143.63
2023-05-11T14:36:33.675Z,-143.63
2023-05-11T14:39:01.178Z,-143.63
2023-05-11T14:41:28.705Z,-143.63
2023-05-11T14:43:56.238Z,-143.63
2023-05-11T14:46:26.659Z,-143.63
2023-05-11T14:48:54.419Z,-143.63
2023-05-11T14:51:21.837Z,-143.63
2023-05-11T14:53:49.146Z,-143.63
2023-05-11T14:56:17.163Z,-143.63
2023-05-11T14:58:44.556Z,-143.63
2023-05-11T15:01:11.917Z,-143.63
2023-05-11T15:03:39.564Z,-143.63
2023-05-11T15:06:07.660Z,-143.63
2023-05-11T15:08:34.940Z,-143.63
2023-05-11T15:11:02.329Z,-143.63
2023-05-11T15:13:29.738Z,-143.63
2023-05-11T15:15:57.995Z,-143.63
2023-05-11T15:18:25.602Z,-143.63
2023-05-11T15:20:53.044Z,-143.63
2023-05-11T15:23:20.876Z,-143.63
2023-05-11T15:25:49.183Z,-143.63
2023-05-11T15:28:16.543Z,-143.63
2023-05-11T15:30:44.135Z,-143.63
2023-05-11T15:33:11.694Z,-143.63
2023-05-11T15:35:39.478Z,-143.63
2023-05-11T15:38:07.020Z,-143.63
2023-05-11T15:40:34.517Z,-143.63
2023-05-11T15:43:02.039Z,-143.63
2023-05-11T15:45:30.375Z,-143.63
2023-05-11T15:47:58.345Z,-143.63
2023-05-11T15:50:25.973Z,-143.63
2023-05-11T15:52:53.292Z,-143.63
2023-05-11T15:55:20.649Z,-143.63
2023-05-11T15:57:48.067Z,-143.63
2023-05-11T16:00:16.920Z,-143.63
2023-05-11T16:02:46.041Z,-143.63
2023-05-11T16:05:13.642Z,-143.63
2023-05-11T16:07:40.990Z,-143.63
2023-05-11T16:10:09.268Z,-143.63
2023-05-11T16:12:36.684Z,-143.63
2023-05-11T16:15:05.404Z,-143.63
2023-05-11T16:17:32.821Z,-143.63
2023-05-11T16:20:00.545Z,-143.63
2023-05-11T16:22:28.171Z,-143.63
2023-05-11T16:24:55.509Z,-143.63
2023-05-11T16:27:23.005Z,-143.63
2023-05-11T16:29:51.209Z,-143.63
2023-05-11T16:32:20.433Z,-143.63
2023-05-11T16:34:47.763Z,-143.63
2023-05-11T16:37:15.361Z,-143.63
2023-05-11T16:39:42.883Z,-143.63
2023-05-11T16:42:10.637Z,-143.63
2023-05-11T16:44:37.957Z,-143.63
2023-05-11T16:47:05.857Z,-143.63
2023-05-11T16:49:33.541Z,-143.63
2023-05-11T16:52:00.943Z,-143.63
2023-05-11T16:54:29.302Z,-143.63
2023-05-11T16:56:57.039Z,-143.63
2023-05-11T16:59:24.408Z,-143.63
2023-05-11T17:01:51.850Z,-143.63
2023-05-11T17:04:19.324Z,-143.63
2023-05-11T17:06:46.769Z,-143.63
2023-05-11T17:09:14.390Z,-143.63
2023-05-11T17:11:41.646Z,-143.63
2023-05-11T17:14:09.117Z,-143.63
2023-05-11T17:16:36.646Z,-143.63
2023-05-11T17:19:04.141Z,-143.63
2023-05-11T17:21:32.479Z,-143.63
2023-05-11T17:23:59.862Z,-143.63
2023-05-11T17:26:35.408Z,-143.63
2023-05-11T17:29:11.407Z,-143.63
2023-05-11T17:31:39.152Z,-143.63
2023-05-11T17:34:08.661Z,-143.63
2023-05-11T17:36:36.218Z,-143.63
2023-05-11T17:39:03.812Z,-143.63
2023-05-11T17:41:32.001Z,-143.63
2023-05-11T17:43:59.390Z,-143.63
2023-05-11T17:46:28.106Z,-143.63
2023-05-11T17:48:55.641Z,-143.63
2023-05-11T17:51:23.053Z,-143.63
2023-05-11T17:53:50.876Z,-143.63
2023-05-11T17:57:17.821Z,-143.63
2023-05-11T18:00:34.520Z,-143.63
2023-05-11T18:03:40.024Z,-143.63
2023-05-11T18:06:16.500Z,-143.63
2023-05-11T18:08:43.987Z,-143.63
2023-05-11T18:11:17.899Z,-143.63
2023-05-11T18:13:47.632Z,-143.63
2023-05-11T18:16:15.117Z,-143.63
2023-05-11T18:18:43.302Z,-143.63
2023-05-11T18:21:10.915Z,-143.63
2023-05-11T18:23:39.196Z,-143.63
2023-05-11T18:26:08.037Z,-143.63
2023-05-11T18:28:35.668Z,-143.63
2023-05-11T18:31:03.579Z,-143.63
2023-05-11T18:33:31.156Z,-143.63
2023-05-11T18:35:59.019Z,-143.63
2023-05-11T18:38:27.709Z,-143.63
2023-05-11T18:40:57.848Z,-143.63
2023-05-11T18:43:33.181Z,-143.63
2023-05-11T18:46:00.957Z,-143.63
2023-05-11T18:48:28.335Z,-143.63
2023-05-11T18:50:57.652Z,-143.63
2023-05-11T18:53:25.705Z,-143.63
2023-05-11T18:55:54.046Z,-143.63
2023-05-11T18:58:21.681Z,-143.63
2023-05-11T19:00:50.742Z,-143.63
2023-05-11T19:03:20.759Z,-143.63
2023-05-11T19:05:49.816Z,-143.63
2023-05-11T19:08:17.573Z,-143.63
2023-05-11T19:10:45.567Z,-143.63
2023-05-11T19:13:13.485Z,-143.63
2023-05-11T19:15:40.925Z,-143.63
2023-05-11T19:18:08.352Z,-143.63
2023-05-11T19:20:39.240Z,-143.63
2023-05-11T19:23:06.853Z,-143.63
2023-05-11T19:25:34.378Z,-143.63
2023-05-11T19:28:01.909Z,-143.63
2023-05-11T19:30:29.428Z,-143.63
2023-05-11T19:32:57.111Z,-143.63
2023-05-11T19:35:26.097Z,-143.63
2023-05-11T19:37:53.863Z,-143.63
2023-05-11T19:40:45.413Z,-143.63
2023-05-11T19:43:13.993Z,-143.63
2023-05-11T19:45:43.759Z,-143.63
2023-05-11T19:48:13.999Z,-143.63
2023-05-11T19:50:41.928Z,-143.63
2023-05-11T19:53:09.631Z,-143.63
2023-05-11T19:55:37.324Z,-143.63
2023-05-11T19:58:08.342Z,-143.63
2023-05-11T20:00:37.024Z,-143.63
2023-05-11T20:03:04.631Z,-143.63
2023-05-11T20:05:32.914Z,-143.63
2023-05-11T20:08:06.296Z,-143.63
2023-05-11T20:10:34.840Z,-143.63
2023-05-11T20:13:05.613Z,-143.63
2023-05-11T20:15:34.117Z,-143.63
2023-05-11T20:18:03.576Z,-143.63
2023-05-11T20:20:31.801Z,-143.63
2023-05-11T20:23:00.838Z,-143.63
2023-05-11T20:25:28.630Z,-143.63
2023-05-11T20:27:56.243Z,-143.63
2023-05-11T20:30:23.922Z,-143.63
2023-05-11T20:35:22.370Z,-143.63
2023-05-11T20:37:49.751Z,-143.63
2023-05-11T20:40:17.608Z,-143.63
2023-05-11T20:42:45.080Z,-143.63
2023-05-11T20:45:12.281Z,-143.63
2023-05-11T20:47:39.755Z,-143.63
2023-05-11T20:50:10.167Z,-143.63
2023-05-11T20:52:37.992Z,-143.63
2023-05-11T20:55:06.703Z,-143.63
2023-05-11T20:57:34.141Z,-143.63
2023-05-11T21:02:33.128Z,-143.63
2023-05-11T21:05:04.613Z,-143.63
2023-05-11T21:07:32.042Z,-143.63
2023-05-11T21:10:00.764Z,-143.63
2023-05-11T21:12:28.106Z,-143.63
2023-05-11T21:14:56.984Z,-143.63
2023-05-11T21:17:25.003Z,-143.63
2023-05-11T21:19:52.523Z,-143.63
2023-05-11T21:22:19.883Z,-143.63
2023-05-11T21:24:47.829Z,-143.63
2023-05-11T21:27:15.378Z,-143.63
2023-05-11T21:29:42.756Z,-143.63
2023-05-11T21:32:10.511Z,-143.63
2023-05-11T21:34:38.541Z,-143.63
2023-05-11T21:37:05.953Z,-143.63
2023-05-11T21:39:33.280Z,-143.63
2023-05-11T21:42:01.819Z,-143.63
2023-05-11T21:44:29.375Z,-143.63
2023-05-11T21:46:56.754Z,-143.63
2023-05-11T21:49:24.176Z,-143.63
2023-05-11T21:51:51.474Z,-143.63
2023-05-11T21:54:22.615Z,-143.63
2023-05-11T21:56:52.318Z,-143.63
2023-05-11T21:59:20.177Z,-143.63
2023-05-11T22:01:49.859Z,-143.63
2023-05-11T22:04:17.194Z,-143.63
2023-05-11T22:06:44.479Z,-143.63
2023-05-11T22:09:12.396Z,-143.63
2023-05-11T22:11:39.826Z,-143.63
2023-05-11T22:14:07.248Z,-143.63
2023-05-11T22:16:34.708Z,-143.63
2023-05-11T22:19:02.118Z,-143.63
2023-05-11T22:21:29.625Z,-143.63
2023-05-11T22:23:56.981Z,-143.63
2023-05-11T22:26:24.158Z,-143.63
2023-05-11T22:28:51.518Z,-143.63
2023-05-11T22:31:18.958Z,-143.63
2023-05-11T22:33:46.504Z,-143.63
2023-05-11T22:36:13.880Z,-143.63
2023-05-11T22:38:41.227Z,-143.63
2023-05-11T22:41:08.628Z,-143.63
2023-05-11T22:43:36.255Z,-143.63
2023-05-11T22:46:05.206Z,-143.63
2023-05-11T22:48:32.907Z,-143.63
2023-05-11T22:51:00.199Z,-143.63
2023-05-11T22:53:27.461Z,-143.63
2023-05-11T22:55:54.743Z,-143.63
2023-05-11T22:58:22.831Z,-143.63
2023-05-11T23:00:54.752Z,-143.63
2023-05-11T23:03:22.597Z,-143.63
2023-05-11T23:05:49.934Z,-143.63
2023-05-11T23:08:17.187Z,-143.63
2023-05-11T23:10:44.554Z,-143.63
2023-05-11T23:13:12.444Z,-143.63
2023-05-11T23:15:39.736Z,-143.63
2023-05-11T23:18:07.204Z,-143.63
2023-05-11T23:20:34.574Z,-143.63
2023-05-11T23:23:04.051Z,-143.63
2023-05-11T23:25:31.713Z,-143.63
2023-05-11T23:27:59.002Z,-143.63
2023-05-11T23:30:26.417Z,-143.63
2023-05-11T23:32:53.714Z,-143.63
2023-05-11T23:35:21.165Z,-143.63
2023-05-11T23:37:48.477Z,-143.63
2023-05-11T23:40:15.579Z,-143.63
2023-05-11T23:42:42.850Z,-143.63
2023-05-11T23:45:10.929Z,-143.63
2023-05-11T23:47:38.581Z,-143.63
2023-05-11T23:50:07.586Z,-143.63
2023-05-11T23:52:35.022Z,-143.63
2023-05-11T23:55:02.484Z,-143.63
2023-05-11T23:57:29.747Z,-143.63
2023-05-11T23:59:57.218Z,-143.63
